sensor_id;sensor_type;location;lat;lon;timestamp;pressure;altitude;pressure_sealevel;temperature
11849;BMP180;5983;49.966;8.052;2023-10-09T00:01:51;101122.00;;;13.80
11849;BMP180;5983;49.966;8.052;2023-10-09T00:04:19;101107.00;;;13.80
11849;BMP180;5983;49.966;8.052;2023-10-09T00:06:47;101115.00;;;13.80
11849;BMP180;5983;49.966;8.052;2023-10-09T00:09:15;101109.00;;;13.70
11849;BMP180;5983;49.966;8.052;2023-10-09T00:12:07;101110.00;;;13.70
11849;BMP180;5983;49.966;8.052;2023-10-09T00:14:36;101107.00;;;13.70
11849;BMP180;5983;49.966;8.052;2023-10-09T00:17:04;101106.00;;;13.70
11849;BMP180;5983;49.966;8.052;2023-10-09T00:19:43;101109.00;;;13.80
11849;BMP180;5983;49.966;8.052;2023-10-09T00:22:14;101101.00;;;13.70
11849;BMP180;5983;49.966;8.052;2023-10-09T00:24:52;101101.00;;;13.70
11849;BMP180;5983;49.966;8.052;2023-10-09T00:27:38;101103.00;;;13.70
11849;BMP180;5983;49.966;8.052;2023-10-09T00:30:09;101102.00;;;13.70
11849;BMP180;5983;49.966;8.052;2023-10-09T00:32:41;101094.00;;;13.70
11849;BMP180;5983;49.966;8.052;2023-10-09T00:35:17;101099.00;;;13.70
11849;BMP180;5983;49.966;8.052;2023-10-09T00:38:05;101090.00;;;13.70
11849;BMP180;5983;49.966;8.052;2023-10-09T00:40:40;101099.00;;;13.60
11849;BMP180;5983;49.966;8.052;2023-10-09T00:43:13;101089.00;;;13.60
11849;BMP180;5983;49.966;8.052;2023-10-09T00:45:40;101087.00;;;13.60
11849;BMP180;5983;49.966;8.052;2023-10-09T00:48:10;101088.00;;;13.70
11849;BMP180;5983;49.966;8.052;2023-10-09T00:50:40;101084.00;;;13.70
11849;BMP180;5983;49.966;8.052;2023-10-09T00:53:13;101084.00;;;13.70
11849;BMP180;5983;49.966;8.052;2023-10-09T00:55:44;101092.00;;;13.70
11849;BMP180;5983;49.966;8.052;2023-10-09T00:58:18;101076.00;;;13.70
11849;BMP180;5983;49.966;8.052;2023-10-09T01:00:49;101081.00;;;13.80
11849;BMP180;5983;49.966;8.052;2023-10-09T01:03:18;101069.00;;;13.80
11849;BMP180;5983;49.966;8.052;2023-10-09T01:05:49;101072.00;;;13.80
11849;BMP180;5983;49.966;8.052;2023-10-09T01:08:22;101070.00;;;13.90
11849;BMP180;5983;49.966;8.052;2023-10-09T01:10:56;101056.00;;;13.90
11849;BMP180;5983;49.966;8.052;2023-10-09T01:13:37;101047.00;;;13.90
11849;BMP180;5983;49.966;8.052;2023-10-09T01:16:20;101040.00;;;13.90
11849;BMP180;5983;49.966;8.052;2023-10-09T01:18:48;101038.00;;;13.90
11849;BMP180;5983;49.966;8.052;2023-10-09T01:21:16;101039.00;;;13.90
11849;BMP180;5983;49.966;8.052;2023-10-09T01:23:45;101046.00;;;13.80
11849;BMP180;5983;49.966;8.052;2023-10-09T01:26:28;101045.00;;;13.80
11849;BMP180;5983;49.966;8.052;2023-10-09T01:28:58;101048.00;;;13.80
11849;BMP180;5983;49.966;8.052;2023-10-09T01:31:26;101047.00;;;13.80
11849;BMP180;5983;49.966;8.052;2023-10-09T01:33:59;101040.00;;;13.80
11849;BMP180;5983;49.966;8.052;2023-10-09T01:36:26;101044.00;;;13.80
11849;BMP180;5983;49.966;8.052;2023-10-09T01:39:00;101048.00;;;13.80
11849;BMP180;5983;49.966;8.052;2023-10-09T01:41:32;101035.00;;;13.80
11849;BMP180;5983;49.966;8.052;2023-10-09T01:43:59;101039.00;;;13.90
11849;BMP180;5983;49.966;8.052;2023-10-09T01:46:35;101025.00;;;13.80
11849;BMP180;5983;49.966;8.052;2023-10-09T01:49:02;101030.00;;;13.90
11849;BMP180;5983;49.966;8.052;2023-10-09T01:51:42;101021.00;;;13.80
11849;BMP180;5983;49.966;8.052;2023-10-09T01:54:11;101024.00;;;13.80
11849;BMP180;5983;49.966;8.052;2023-10-09T01:56:53;101024.00;;;13.80
11849;BMP180;5983;49.966;8.052;2023-10-09T01:59:22;101023.00;;;13.80
11849;BMP180;5983;49.966;8.052;2023-10-09T02:01:48;101022.00;;;13.80
11849;BMP180;5983;49.966;8.052;2023-10-09T02:04:19;101031.00;;;13.70
11849;BMP180;5983;49.966;8.052;2023-10-09T02:06:47;101027.00;;;13.70
11849;BMP180;5983;49.966;8.052;2023-10-09T02:09:19;101019.00;;;13.70
11849;BMP180;5983;49.966;8.052;2023-10-09T02:11:52;101025.00;;;13.70
11849;BMP180;5983;49.966;8.052;2023-10-09T02:14:19;101021.00;;;13.70
11849;BMP180;5983;49.966;8.052;2023-10-09T02:16:47;101025.00;;;13.70
11849;BMP180;5983;49.966;8.052;2023-10-09T02:19:41;101024.00;;;13.60
11849;BMP180;5983;49.966;8.052;2023-10-09T02:22:14;101022.00;;;13.70
11849;BMP180;5983;49.966;8.052;2023-10-09T02:24:42;101024.00;;;13.70
11849;BMP180;5983;49.966;8.052;2023-10-09T02:27:16;101028.00;;;13.60
11849;BMP180;5983;49.966;8.052;2023-10-09T02:30:07;101021.00;;;13.60
11849;BMP180;5983;49.966;8.052;2023-10-09T02:32:45;101015.00;;;13.60
11849;BMP180;5983;49.966;8.052;2023-10-09T02:35:20;101017.00;;;13.60
11849;BMP180;5983;49.966;8.052;2023-10-09T02:37:53;101010.00;;;13.50
11849;BMP180;5983;49.966;8.052;2023-10-09T02:40:20;101010.00;;;13.50
11849;BMP180;5983;49.966;8.052;2023-10-09T02:42:52;101010.00;;;13.50
11849;BMP180;5983;49.966;8.052;2023-10-09T02:45:19;101005.00;;;13.50
11849;BMP180;5983;49.966;8.052;2023-10-09T02:47:54;101013.00;;;13.50
11849;BMP180;5983;49.966;8.052;2023-10-09T02:50:22;101012.00;;;13.50
11849;BMP180;5983;49.966;8.052;2023-10-09T02:52:53;101003.00;;;13.50
11849;BMP180;5983;49.966;8.052;2023-10-09T02:55:25;101005.00;;;13.40
11849;BMP180;5983;49.966;8.052;2023-10-09T02:57:53;101002.00;;;13.40
11849;BMP180;5983;49.966;8.052;2023-10-09T03:00:31;101003.00;;;13.30
11849;BMP180;5983;49.966;8.052;2023-10-09T03:03:03;100994.00;;;13.30
11849;BMP180;5983;49.966;8.052;2023-10-09T03:05:33;100987.00;;;13.30
11849;BMP180;5983;49.966;8.052;2023-10-09T03:08:00;100985.00;;;13.30
11849;BMP180;5983;49.966;8.052;2023-10-09T03:10:27;100982.00;;;13.20
11849;BMP180;5983;49.966;8.052;2023-10-09T03:12:54;100985.00;;;13.20
11849;BMP180;5983;49.966;8.052;2023-10-09T03:15:21;100987.00;;;13.20
11849;BMP180;5983;49.966;8.052;2023-10-09T03:17:48;100996.00;;;13.20
11849;BMP180;5983;49.966;8.052;2023-10-09T03:20:15;100993.00;;;13.20
11849;BMP180;5983;49.966;8.052;2023-10-09T03:22:45;100989.00;;;13.20
11849;BMP180;5983;49.966;8.052;2023-10-09T03:25:13;100991.00;;;13.20
11849;BMP180;5983;49.966;8.052;2023-10-09T03:27:43;100991.00;;;13.20
11849;BMP180;5983;49.966;8.052;2023-10-09T03:30:13;100984.00;;;13.20
11849;BMP180;5983;49.966;8.052;2023-10-09T03:32:48;100983.00;;;13.20
11849;BMP180;5983;49.966;8.052;2023-10-09T03:35:17;100980.00;;;13.20
11849;BMP180;5983;49.966;8.052;2023-10-09T03:37:53;100972.00;;;13.20
11849;BMP180;5983;49.966;8.052;2023-10-09T03:40:23;100975.00;;;13.20
11849;BMP180;5983;49.966;8.052;2023-10-09T03:42:50;100970.00;;;13.20
11849;BMP180;5983;49.966;8.052;2023-10-09T03:45:18;100966.00;;;13.10
11849;BMP180;5983;49.966;8.052;2023-10-09T03:47:52;100956.00;;;13.10
11849;BMP180;5983;49.966;8.052;2023-10-09T03:50:27;100966.00;;;13.10
11849;BMP180;5983;49.966;8.052;2023-10-09T03:53:04;100972.00;;;13.10
11849;BMP180;5983;49.966;8.052;2023-10-09T03:55:34;100969.00;;;13.10
11849;BMP180;5983;49.966;8.052;2023-10-09T03:58:04;100966.00;;;13.20
11849;BMP180;5983;49.966;8.052;2023-10-09T04:00:32;100975.00;;;13.10
11849;BMP180;5983;49.966;8.052;2023-10-09T04:03:10;100969.00;;;13.10
11849;BMP180;5983;49.966;8.052;2023-10-09T04:05:40;100977.00;;;13.20
11849;BMP180;5983;49.966;8.052;2023-10-09T04:08:10;100982.00;;;13.10
11849;BMP180;5983;49.966;8.052;2023-10-09T04:11:28;100985.00;;;13.10
11849;BMP180;5983;49.966;8.052;2023-10-09T04:13:55;100993.00;;;13.10
11849;BMP180;5983;49.966;8.052;2023-10-09T04:16:25;100996.00;;;13.10
11849;BMP180;5983;49.966;8.052;2023-10-09T04:19:01;100989.00;;;13.10
11849;BMP180;5983;49.966;8.052;2023-10-09T04:21:32;100984.00;;;13.20
11849;BMP180;5983;49.966;8.052;2023-10-09T04:24:03;100981.00;;;13.10
11849;BMP180;5983;49.966;8.052;2023-10-09T04:26:49;100967.00;;;13.10
11849;BMP180;5983;49.966;8.052;2023-10-09T04:29:22;100963.00;;;13.00
11849;BMP180;5983;49.966;8.052;2023-10-09T04:32:04;100961.00;;;13.00
11849;BMP180;5983;49.966;8.052;2023-10-09T04:34:34;100968.00;;;13.00
11849;BMP180;5983;49.966;8.052;2023-10-09T04:37:01;100975.00;;;13.00
11849;BMP180;5983;49.966;8.052;2023-10-09T04:39:46;100963.00;;;13.00
11849;BMP180;5983;49.966;8.052;2023-10-09T04:42:14;100965.00;;;13.10
11849;BMP180;5983;49.966;8.052;2023-10-09T04:45:04;100966.00;;;13.00
11849;BMP180;5983;49.966;8.052;2023-10-09T04:47:51;100959.00;;;13.00
11849;BMP180;5983;49.966;8.052;2023-10-09T04:50:31;100955.00;;;13.00
11849;BMP180;5983;49.966;8.052;2023-10-09T04:53:35;100958.00;;;12.90
11849;BMP180;5983;49.966;8.052;2023-10-09T04:56:10;100963.00;;;12.90
11849;BMP180;5983;49.966;8.052;2023-10-09T04:58:42;100962.00;;;12.90
11849;BMP180;5983;49.966;8.052;2023-10-09T05:01:09;100971.00;;;12.90
11849;BMP180;5983;49.966;8.052;2023-10-09T05:03:41;100968.00;;;12.80
11849;BMP180;5983;49.966;8.052;2023-10-09T05:06:18;100964.00;;;12.80
11849;BMP180;5983;49.966;8.052;2023-10-09T05:09:10;100964.00;;;12.90
11849;BMP180;5983;49.966;8.052;2023-10-09T05:11:42;100956.00;;;12.90
11849;BMP180;5983;49.966;8.052;2023-10-09T05:14:35;100959.00;;;12.90
11849;BMP180;5983;49.966;8.052;2023-10-09T05:17:14;100961.00;;;12.90
11849;BMP180;5983;49.966;8.052;2023-10-09T05:19:43;100967.00;;;13.00
11849;BMP180;5983;49.966;8.052;2023-10-09T05:22:21;100961.00;;;13.00
11849;BMP180;5983;49.966;8.052;2023-10-09T05:25:02;100970.00;;;13.10
11849;BMP180;5983;49.966;8.052;2023-10-09T05:27:41;100981.00;;;13.10
11849;BMP180;5983;49.966;8.052;2023-10-09T05:30:16;100974.00;;;13.10
11849;BMP180;5983;49.966;8.052;2023-10-09T05:32:53;100973.00;;;13.10
11849;BMP180;5983;49.966;8.052;2023-10-09T05:35:24;100965.00;;;13.10
11849;BMP180;5983;49.966;8.052;2023-10-09T05:38:08;100963.00;;;13.10
11849;BMP180;5983;49.966;8.052;2023-10-09T05:40:49;100957.00;;;13.20
11849;BMP180;5983;49.966;8.052;2023-10-09T05:43:21;100949.00;;;13.20
11849;BMP180;5983;49.966;8.052;2023-10-09T05:46:05;100959.00;;;13.20
11849;BMP180;5983;49.966;8.052;2023-10-09T05:48:35;100960.00;;;13.30
11849;BMP180;5983;49.966;8.052;2023-10-09T05:51:20;100980.00;;;13.30
11849;BMP180;5983;49.966;8.052;2023-10-09T05:54:05;100966.00;;;13.30
11849;BMP180;5983;49.966;8.052;2023-10-09T05:56:50;100969.00;;;13.30
11849;BMP180;5983;49.966;8.052;2023-10-09T05:59:35;100974.00;;;13.30
11849;BMP180;5983;49.966;8.052;2023-10-09T06:02:20;100979.00;;;13.30
11849;BMP180;5983;49.966;8.052;2023-10-09T06:05:04;100977.00;;;13.40
11849;BMP180;5983;49.966;8.052;2023-10-09T06:07:52;100974.00;;;13.40
11849;BMP180;5983;49.966;8.052;2023-10-09T06:10:32;100982.00;;;13.40
11849;BMP180;5983;49.966;8.052;2023-10-09T06:13:06;100985.00;;;13.40
11849;BMP180;5983;49.966;8.052;2023-10-09T06:15:38;100973.00;;;13.40
11849;BMP180;5983;49.966;8.052;2023-10-09T06:18:26;100984.00;;;13.40
11849;BMP180;5983;49.966;8.052;2023-10-09T06:20:58;100985.00;;;13.40
11849;BMP180;5983;49.966;8.052;2023-10-09T06:23:51;100987.00;;;13.40
11849;BMP180;5983;49.966;8.052;2023-10-09T06:26:35;100985.00;;;13.40
11849;BMP180;5983;49.966;8.052;2023-10-09T06:29:02;100987.00;;;13.40
11849;BMP180;5983;49.966;8.052;2023-10-09T06:31:43;100994.00;;;13.40
11849;BMP180;5983;49.966;8.052;2023-10-09T06:34:46;100996.00;;;13.40
11849;BMP180;5983;49.966;8.052;2023-10-09T06:37:17;100991.00;;;13.50
11849;BMP180;5983;49.966;8.052;2023-10-09T06:40:00;100992.00;;;13.50
11849;BMP180;5983;49.966;8.052;2023-10-09T06:42:44;100996.00;;;13.60
11849;BMP180;5983;49.966;8.052;2023-10-09T06:45:16;100999.00;;;13.60
11849;BMP180;5983;49.966;8.052;2023-10-09T06:47:48;101013.00;;;13.60
11849;BMP180;5983;49.966;8.052;2023-10-09T06:50:22;101000.00;;;13.60
11849;BMP180;5983;49.966;8.052;2023-10-09T06:52:52;100999.00;;;13.60
11849;BMP180;5983;49.966;8.052;2023-10-09T06:55:44;101003.00;;;13.60
11849;BMP180;5983;49.966;8.052;2023-10-09T06:58:16;100994.00;;;13.60
11849;BMP180;5983;49.966;8.052;2023-10-09T07:00:48;101002.00;;;13.70
11849;BMP180;5983;49.966;8.052;2023-10-09T07:03:42;101003.00;;;13.70
11849;BMP180;5983;49.966;8.052;2023-10-09T07:06:18;100994.00;;;13.70
11849;BMP180;5983;49.966;8.052;2023-10-09T07:09:12;101005.00;;;13.70
11849;BMP180;5983;49.966;8.052;2023-10-09T07:11:42;100995.00;;;13.80
11849;BMP180;5983;49.966;8.052;2023-10-09T07:14:24;100998.00;;;13.80
11849;BMP180;5983;49.966;8.052;2023-10-09T07:17:09;100993.00;;;13.90
11849;BMP180;5983;49.966;8.052;2023-10-09T07:19:49;100984.00;;;13.90
11849;BMP180;5983;49.966;8.052;2023-10-09T07:22:35;100993.00;;;14.00
11849;BMP180;5983;49.966;8.052;2023-10-09T07:25:19;100988.00;;;14.10
11849;BMP180;5983;49.966;8.052;2023-10-09T07:28:06;100991.00;;;14.10
11849;BMP180;5983;49.966;8.052;2023-10-09T07:30:44;101001.00;;;14.20
11849;BMP180;5983;49.966;8.052;2023-10-09T07:33:11;101000.00;;;14.20
11849;BMP180;5983;49.966;8.052;2023-10-09T07:35:45;101009.00;;;14.30
11849;BMP180;5983;49.966;8.052;2023-10-09T07:38:17;101003.00;;;14.40
11849;BMP180;5983;49.966;8.052;2023-10-09T07:40:45;101006.00;;;14.40
11849;BMP180;5983;49.966;8.052;2023-10-09T07:43:27;101013.00;;;14.40
11849;BMP180;5983;49.966;8.052;2023-10-09T07:45:54;101000.00;;;14.50
11849;BMP180;5983;49.966;8.052;2023-10-09T07:48:35;100991.00;;;14.60
11849;BMP180;5983;49.966;8.052;2023-10-09T07:51:15;100995.00;;;14.70
11849;BMP180;5983;49.966;8.052;2023-10-09T07:53:42;101012.00;;;14.80
11849;BMP180;5983;49.966;8.052;2023-10-09T07:56:15;101026.00;;;14.90
11849;BMP180;5983;49.966;8.052;2023-10-09T07:58:46;101034.00;;;15.00
11849;BMP180;5983;49.966;8.052;2023-10-09T08:01:14;101032.00;;;15.00
11849;BMP180;5983;49.966;8.052;2023-10-09T08:03:49;101028.00;;;15.20
11849;BMP180;5983;49.966;8.052;2023-10-09T08:06:24;101034.00;;;15.30
11849;BMP180;5983;49.966;8.052;2023-10-09T08:09:09;101035.00;;;15.40
11849;BMP180;5983;49.966;8.052;2023-10-09T08:11:53;101031.00;;;15.60
11849;BMP180;5983;49.966;8.052;2023-10-09T08:14:40;101038.00;;;15.80
11849;BMP180;5983;49.966;8.052;2023-10-09T08:17:11;101020.00;;;15.90
11849;BMP180;5983;49.966;8.052;2023-10-09T08:19:48;101017.00;;;16.10
11849;BMP180;5983;49.966;8.052;2023-10-09T08:22:29;101018.00;;;16.10
11849;BMP180;5983;49.966;8.052;2023-10-09T08:25:10;101015.00;;;16.20
11849;BMP180;5983;49.966;8.052;2023-10-09T08:27:58;101010.00;;;16.10
11849;BMP180;5983;49.966;8.052;2023-10-09T08:30:45;101020.00;;;16.20
11849;BMP180;5983;49.966;8.052;2023-10-09T08:33:29;101030.00;;;16.10
11849;BMP180;5983;49.966;8.052;2023-10-09T08:36:07;101034.00;;;16.20
11849;BMP180;5983;49.966;8.052;2023-10-09T08:38:34;101039.00;;;16.20
11849;BMP180;5983;49.966;8.052;2023-10-09T08:41:08;101040.00;;;16.20
11849;BMP180;5983;49.966;8.052;2023-10-09T08:43:50;101037.00;;;16.20
11849;BMP180;5983;49.966;8.052;2023-10-09T08:46:21;101029.00;;;16.30
11849;BMP180;5983;49.966;8.052;2023-10-09T08:48:48;101043.00;;;16.40
11849;BMP180;5983;49.966;8.052;2023-10-09T08:51:17;101038.00;;;16.50
11849;BMP180;5983;49.966;8.052;2023-10-09T08:53:46;101029.00;;;16.60
11849;BMP180;5983;49.966;8.052;2023-10-09T08:56:13;101040.00;;;16.80
11849;BMP180;5983;49.966;8.052;2023-10-09T08:58:45;101045.00;;;16.90
11849;BMP180;5983;49.966;8.052;2023-10-09T09:01:16;101045.00;;;17.00
11849;BMP180;5983;49.966;8.052;2023-10-09T09:03:45;101044.00;;;17.10
11849;BMP180;5983;49.966;8.052;2023-10-09T09:06:12;101046.00;;;17.20
11849;BMP180;5983;49.966;8.052;2023-10-09T09:08:40;101046.00;;;17.30
11849;BMP180;5983;49.966;8.052;2023-10-09T09:11:13;101045.00;;;17.30
11849;BMP180;5983;49.966;8.052;2023-10-09T09:13:40;101050.00;;;17.30
11849;BMP180;5983;49.966;8.052;2023-10-09T09:16:15;101047.00;;;17.30
11849;BMP180;5983;49.966;8.052;2023-10-09T09:18:49;101063.00;;;17.30
11849;BMP180;5983;49.966;8.052;2023-10-09T09:21:22;101055.00;;;17.30
11849;BMP180;5983;49.966;8.052;2023-10-09T09:23:56;101061.00;;;17.30
11849;BMP180;5983;49.966;8.052;2023-10-09T09:26:36;101069.00;;;17.20
11849;BMP180;5983;49.966;8.052;2023-10-09T09:29:04;101068.00;;;17.20
11849;BMP180;5983;49.966;8.052;2023-10-09T09:31:33;101065.00;;;17.30
11849;BMP180;5983;49.966;8.052;2023-10-09T09:34:04;101056.00;;;17.30
11849;BMP180;5983;49.966;8.052;2023-10-09T09:36:49;101055.00;;;17.30
11849;BMP180;5983;49.966;8.052;2023-10-09T09:39:21;101062.00;;;17.30
11849;BMP180;5983;49.966;8.052;2023-10-09T09:41:59;101067.00;;;17.30
11849;BMP180;5983;49.966;8.052;2023-10-09T09:44:33;101060.00;;;17.40
11849;BMP180;5983;49.966;8.052;2023-10-09T09:47:09;101076.00;;;17.40
11849;BMP180;5983;49.966;8.052;2023-10-09T09:49:41;101073.00;;;17.50
11849;BMP180;5983;49.966;8.052;2023-10-09T09:52:08;101073.00;;;17.60
11849;BMP180;5983;49.966;8.052;2023-10-09T09:54:38;101075.00;;;17.70
11849;BMP180;5983;49.966;8.052;2023-10-09T09:57:07;101085.00;;;17.80
11849;BMP180;5983;49.966;8.052;2023-10-09T09:59:38;101088.00;;;17.80
11849;BMP180;5983;49.966;8.052;2023-10-09T10:02:23;101078.00;;;17.90
11849;BMP180;5983;49.966;8.052;2023-10-09T10:04:56;101083.00;;;18.00
11849;BMP180;5983;49.966;8.052;2023-10-09T10:07:26;101088.00;;;18.10
11849;BMP180;5983;49.966;8.052;2023-10-09T10:09:56;101092.00;;;18.30
11849;BMP180;5983;49.966;8.052;2023-10-09T10:12:50;101085.00;;;18.40
11849;BMP180;5983;49.966;8.052;2023-10-09T10:15:59;101070.00;;;18.60
11849;BMP180;5983;49.966;8.052;2023-10-09T10:18:31;101069.00;;;18.90
11849;BMP180;5983;49.966;8.052;2023-10-09T10:21:10;101076.00;;;19.30
11849;BMP180;5983;49.966;8.052;2023-10-09T10:23:42;101068.00;;;19.60
11849;BMP180;5983;49.966;8.052;2023-10-09T10:26:19;101061.00;;;19.80
11849;BMP180;5983;49.966;8.052;2023-10-09T10:29:18;101048.00;;;19.90
11849;BMP180;5983;49.966;8.052;2023-10-09T10:31:59;101048.00;;;19.90
11849;BMP180;5983;49.966;8.052;2023-10-09T10:34:53;101035.00;;;20.10
11849;BMP180;5983;49.966;8.052;2023-10-09T10:37:34;101025.00;;;20.30
11849;BMP180;5983;49.966;8.052;2023-10-09T10:40:04;101018.00;;;20.50
11849;BMP180;5983;49.966;8.052;2023-10-09T10:42:47;101013.00;;;20.70
11849;BMP180;5983;49.966;8.052;2023-10-09T10:45:32;100999.00;;;21.00
11849;BMP180;5983;49.966;8.052;2023-10-09T10:48:01;101015.00;;;21.30
11849;BMP180;5983;49.966;8.052;2023-10-09T10:50:33;101026.00;;;21.40
11849;BMP180;5983;49.966;8.052;2023-10-09T10:53:09;101038.00;;;21.70
11849;BMP180;5983;49.966;8.052;2023-10-09T10:55:55;101045.00;;;22.20
11849;BMP180;5983;49.966;8.052;2023-10-09T10:58:22;101034.00;;;22.60
11849;BMP180;5983;49.966;8.052;2023-10-09T11:01:02;101050.00;;;22.90
11849;BMP180;5983;49.966;8.052;2023-10-09T11:03:43;101044.00;;;23.40
11849;BMP180;5983;49.966;8.052;2023-10-09T11:06:26;101054.00;;;24.20
11849;BMP180;5983;49.966;8.052;2023-10-09T11:09:03;101047.00;;;24.60
11849;BMP180;5983;49.966;8.052;2023-10-09T11:11:47;101041.00;;;25.00
11849;BMP180;5983;49.966;8.052;2023-10-09T11:14:14;101022.00;;;25.50
11849;BMP180;5983;49.966;8.052;2023-10-09T11:16:42;101008.00;;;25.70
11849;BMP180;5983;49.966;8.052;2023-10-09T11:19:18;101007.00;;;26.30
11849;BMP180;5983;49.966;8.052;2023-10-09T11:22:05;101016.00;;;26.30
11849;BMP180;5983;49.966;8.052;2023-10-09T11:24:54;101016.00;;;26.60
11849;BMP180;5983;49.966;8.052;2023-10-09T11:27:35;101016.00;;;27.50
11849;BMP180;5983;49.966;8.052;2023-10-09T11:30:06;101023.00;;;28.10
11849;BMP180;5983;49.966;8.052;2023-10-09T11:32:48;101018.00;;;28.20
11849;BMP180;5983;49.966;8.052;2023-10-09T11:35:17;101017.00;;;27.40
11849;BMP180;5983;49.966;8.052;2023-10-09T11:37:55;101019.00;;;26.70
11849;BMP180;5983;49.966;8.052;2023-10-09T11:40:28;101016.00;;;26.10
11849;BMP180;5983;49.966;8.052;2023-10-09T11:43:00;101012.00;;;25.60
11849;BMP180;5983;49.966;8.052;2023-10-09T11:45:28;100998.00;;;25.10
11849;BMP180;5983;49.966;8.052;2023-10-09T11:47:58;100996.00;;;24.70
11849;BMP180;5983;49.966;8.052;2023-10-09T11:50:41;100983.00;;;24.40
11849;BMP180;5983;49.966;8.052;2023-10-09T11:53:10;100970.00;;;24.10
11849;BMP180;5983;49.966;8.052;2023-10-09T11:55:54;100970.00;;;23.70
11849;BMP180;5983;49.966;8.052;2023-10-09T11:58:22;100969.00;;;23.50
11849;BMP180;5983;49.966;8.052;2023-10-09T12:00:50;100973.00;;;23.50
11849;BMP180;5983;49.966;8.052;2023-10-09T12:03:24;100976.00;;;23.90
11849;BMP180;5983;49.966;8.052;2023-10-09T12:05:57;100985.00;;;24.50
11849;BMP180;5983;49.966;8.052;2023-10-09T12:08:30;100971.00;;;25.10
11849;BMP180;5983;49.966;8.052;2023-10-09T12:10:57;100976.00;;;26.00
11849;BMP180;5983;49.966;8.052;2023-10-09T12:13:26;100978.00;;;26.60
11849;BMP180;5983;49.966;8.052;2023-10-09T12:15:54;100985.00;;;26.60
11849;BMP180;5983;49.966;8.052;2023-10-09T12:18:24;100969.00;;;26.30
11849;BMP180;5983;49.966;8.052;2023-10-09T12:20:51;100971.00;;;26.10
11849;BMP180;5983;49.966;8.052;2023-10-09T12:23:21;100963.00;;;25.90
11849;BMP180;5983;49.966;8.052;2023-10-09T12:25:49;100970.00;;;25.80
11849;BMP180;5983;49.966;8.052;2023-10-09T12:28:16;100970.00;;;25.60
11849;BMP180;5983;49.966;8.052;2023-10-09T12:30:46;100960.00;;;25.40
11849;BMP180;5983;49.966;8.052;2023-10-09T12:33:16;100962.00;;;25.10
11849;BMP180;5983;49.966;8.052;2023-10-09T12:35:45;100956.00;;;25.00
11849;BMP180;5983;49.966;8.052;2023-10-09T12:38:12;100954.00;;;24.90
11849;BMP180;5983;49.966;8.052;2023-10-09T12:40:44;100949.00;;;24.60
11849;BMP180;5983;49.966;8.052;2023-10-09T12:43:16;100960.00;;;24.40
11849;BMP180;5983;49.966;8.052;2023-10-09T12:45:45;100943.00;;;24.20
11849;BMP180;5983;49.966;8.052;2023-10-09T12:48:12;100951.00;;;24.00
11849;BMP180;5983;49.966;8.052;2023-10-09T12:50:40;100950.00;;;24.00
11849;BMP180;5983;49.966;8.052;2023-10-09T12:53:11;100940.00;;;24.10
11849;BMP180;5983;49.966;8.052;2023-10-09T12:55:43;100946.00;;;24.20
11849;BMP180;5983;49.966;8.052;2023-10-09T12:58:11;100941.00;;;24.20
11849;BMP180;5983;49.966;8.052;2023-10-09T13:00:41;100938.00;;;24.30
11849;BMP180;5983;49.966;8.052;2023-10-09T13:03:10;100935.00;;;24.50
11849;BMP180;5983;49.966;8.052;2023-10-09T13:05:47;100939.00;;;24.80
11849;BMP180;5983;49.966;8.052;2023-10-09T13:08:23;100937.00;;;25.20
11849;BMP180;5983;49.966;8.052;2023-10-09T13:11:01;100932.00;;;25.50
11849;BMP180;5983;49.966;8.052;2023-10-09T13:13:30;100937.00;;;25.50
11849;BMP180;5983;49.966;8.052;2023-10-09T13:16:07;100932.00;;;25.70
11849;BMP180;5983;49.966;8.052;2023-10-09T13:18:37;100928.00;;;25.80
11849;BMP180;5983;49.966;8.052;2023-10-09T13:21:04;100936.00;;;25.80
11849;BMP180;5983;49.966;8.052;2023-10-09T13:23:34;100928.00;;;25.80
11849;BMP180;5983;49.966;8.052;2023-10-09T13:26:06;100922.00;;;25.60
11849;BMP180;5983;49.966;8.052;2023-10-09T13:28:45;100928.00;;;25.50
11849;BMP180;5983;49.966;8.052;2023-10-09T13:31:12;100922.00;;;25.30
11849;BMP180;5983;49.966;8.052;2023-10-09T13:33:41;100917.00;;;25.00
11849;BMP180;5983;49.966;8.052;2023-10-09T13:36:08;100923.00;;;24.80
11849;BMP180;5983;49.966;8.052;2023-10-09T13:38:43;100928.00;;;24.60
11849;BMP180;5983;49.966;8.052;2023-10-09T13:41:10;100926.00;;;24.30
11849;BMP180;5983;49.966;8.052;2023-10-09T13:43:40;100937.00;;;24.30
11849;BMP180;5983;49.966;8.052;2023-10-09T13:46:09;100936.00;;;24.30
11849;BMP180;5983;49.966;8.052;2023-10-09T13:48:37;100930.00;;;24.30
11849;BMP180;5983;49.966;8.052;2023-10-09T13:51:07;100936.00;;;24.40
11849;BMP180;5983;49.966;8.052;2023-10-09T13:53:44;100933.00;;;24.50
11849;BMP180;5983;49.966;8.052;2023-10-09T13:56:12;100917.00;;;24.60
11849;BMP180;5983;49.966;8.052;2023-10-09T13:58:47;100914.00;;;24.60
11849;BMP180;5983;49.966;8.052;2023-10-09T14:01:15;100906.00;;;24.70
11849;BMP180;5983;49.966;8.052;2023-10-09T14:03:55;100913.00;;;24.70
11849;BMP180;5983;49.966;8.052;2023-10-09T14:06:23;100916.00;;;24.70
11849;BMP180;5983;49.966;8.052;2023-10-09T14:09:02;100913.00;;;24.70
11849;BMP180;5983;49.966;8.052;2023-10-09T14:11:31;100908.00;;;24.60
11849;BMP180;5983;49.966;8.052;2023-10-09T14:13:58;100912.00;;;24.60
11849;BMP180;5983;49.966;8.052;2023-10-09T14:16:27;100917.00;;;24.60
11849;BMP180;5983;49.966;8.052;2023-10-09T14:18:54;100905.00;;;24.60
11849;BMP180;5983;49.966;8.052;2023-10-09T14:21:24;100911.00;;;24.60
11849;BMP180;5983;49.966;8.052;2023-10-09T14:23:51;100913.00;;;24.50
11849;BMP180;5983;49.966;8.052;2023-10-09T14:26:25;100925.00;;;24.40
11849;BMP180;5983;49.966;8.052;2023-10-09T14:28:52;100917.00;;;24.30
11849;BMP180;5983;49.966;8.052;2023-10-09T14:31:19;100911.00;;;24.20
11849;BMP180;5983;49.966;8.052;2023-10-09T14:33:52;100906.00;;;24.10
11849;BMP180;5983;49.966;8.052;2023-10-09T14:36:19;100892.00;;;24.00
11849;BMP180;5983;49.966;8.052;2023-10-09T14:38:48;100895.00;;;23.90
11849;BMP180;5983;49.966;8.052;2023-10-09T14:41:19;100900.00;;;23.80
11849;BMP180;5983;49.966;8.052;2023-10-09T14:43:49;100899.00;;;23.70
11849;BMP180;5983;49.966;8.052;2023-10-09T14:46:16;100891.00;;;23.60
11849;BMP180;5983;49.966;8.052;2023-10-09T14:48:49;100898.00;;;23.50
11849;BMP180;5983;49.966;8.052;2023-10-09T14:51:19;100899.00;;;23.40